createdAt,value
2019-05-18T00:01:03.508Z,95169.01
2019-05-18T00:03:29.790Z,95170.25
2019-05-18T00:05:55.989Z,95171.47
2019-05-18T00:08:22.207Z,95166.11
2019-05-18T00:10:48.294Z,95168.44
2019-05-18T00:13:14.528Z,95173.27
2019-05-18T00:15:40.786Z,95169.00
2019-05-18T00:18:07.055Z,95165.60
2019-05-18T00:20:33.270Z,95168.07
2019-05-18T00:22:59.406Z,95162.00
2019-05-18T00:25:25.627Z,95163.66
2019-05-18T00:27:52.976Z,95162.03
2019-05-18T00:30:19.317Z,95158.73
2019-05-18T00:32:45.655Z,95158.70
2019-05-18T00:35:11.865Z,95155.41
2019-05-18T00:37:38.243Z,95151.87
2019-05-18T00:40:05.817Z,95151.33
2019-05-18T00:42:32.021Z,95145.02
2019-05-18T00:44:58.123Z,95147.48
2019-05-18T00:47:24.333Z,95148.97
2019-05-18T00:49:50.414Z,95145.67
2019-05-18T00:52:16.730Z,95140.36
2019-05-18T00:54:42.851Z,95144.83
2019-05-18T00:57:09.185Z,95142.20
2019-05-18T00:59:35.276Z,95144.22
2019-05-18T01:02:01.486Z,95142.98
2019-05-18T01:04:27.680Z,95148.99
2019-05-18T01:06:54.009Z,95145.42
2019-05-18T01:09:20.166Z,95144.28
2019-05-18T01:11:46.313Z,95145.45
2019-05-18T01:14:12.462Z,95145.77
2019-05-18T01:16:38.603Z,95142.78
2019-05-18T01:19:04.771Z,95138.37
2019-05-18T01:21:30.954Z,95139.76
2019-05-18T01:23:57.108Z,95140.78
2019-05-18T01:26:23.364Z,95137.03
2019-05-18T01:28:49.493Z,95136.57
2019-05-18T01:31:15.637Z,95135.62
2019-05-18T01:33:41.912Z,95133.02
2019-05-18T01:36:08.157Z,95137.61
2019-05-18T01:38:34.498Z,95139.25
2019-05-18T01:41:00.585Z,95137.64
2019-05-18T01:43:26.800Z,95137.97
2019-05-18T01:45:52.899Z,95133.72
2019-05-18T01:48:19.099Z,95138.49
2019-05-18T01:50:45.233Z,95135.88
2019-05-18T01:53:11.425Z,95141.97
2019-05-18T01:55:37.559Z,95133.41
2019-05-18T01:58:03.714Z,95137.86
2019-05-18T02:00:29.967Z,95143.80
2019-05-18T02:02:56.185Z,95146.30
2019-05-18T02:05:22.271Z,95140.70
2019-05-18T02:07:48.610Z,95145.63
2019-05-18T02:10:14.974Z,95144.64
2019-05-18T02:12:41.235Z,95141.05
2019-05-18T02:15:08.165Z,95140.55
2019-05-18T02:17:34.382Z,95141.71
2019-05-18T02:20:02.028Z,95143.84
2019-05-18T02:22:29.239Z,95136.28
2019-05-18T02:24:55.434Z,95142.38
2019-05-18T02:27:21.621Z,95139.23
2019-05-18T02:29:47.856Z,95133.48
2019-05-18T02:32:14.051Z,95129.86
2019-05-18T02:34:40.354Z,95132.48
2019-05-18T02:37:06.693Z,95130.53
2019-05-18T02:39:32.930Z,95125.26
2019-05-18T02:41:59.221Z,95129.20
2019-05-18T02:44:25.508Z,95128.38
2019-05-18T02:46:52.775Z,95131.17
2019-05-18T02:49:19.019Z,95128.70
2019-05-18T02:51:45.227Z,95127.23
2019-05-18T02:54:11.390Z,95131.17
2019-05-18T02:56:37.586Z,95124.77
2019-05-18T02:59:03.683Z,95125.75
2019-05-18T03:01:29.989Z,95130.69
2019-05-18T03:03:56.148Z,95129.38
2019-05-18T03:06:22.378Z,95124.12
2019-05-18T03:08:48.530Z,95125.91
2019-05-18T03:11:14.728Z,95121.33
2019-05-18T03:13:40.912Z,95117.22
2019-05-18T03:16:07.209Z,95118.05
2019-05-18T03:18:33.549Z,95121.14
2019-05-18T03:20:59.919Z,95128.39
2019-05-18T03:23:26.123Z,95123.28
2019-05-18T03:25:52.209Z,95121.47
2019-05-18T03:28:18.530Z,95117.54
2019-05-18T03:30:44.699Z,95122.47
2019-05-18T03:33:10.911Z,95120.98
2019-05-18T03:35:37.062Z,95126.72
2019-05-18T03:38:03.307Z,95129.19
2019-05-18T03:40:29.541Z,95125.73
2019-05-18T03:42:55.812Z,95118.31
2019-05-18T03:45:22.165Z,95124.91
2019-05-18T03:47:48.510Z,95122.27
2019-05-18T03:50:15.198Z,95126.20
2019-05-18T03:52:41.305Z,95120.60
2019-05-18T03:55:07.708Z,95116.97
2019-05-18T03:57:33.803Z,95128.31
2019-05-18T04:00:00.135Z,95127.49
2019-05-18T04:02:26.259Z,95121.89
2019-05-18T04:04:52.417Z,95116.95
2019-05-18T04:07:18.531Z,95121.05
2019-05-18T04:09:44.730Z,95125.48
2019-05-18T04:12:10.909Z,95125.64
2019-05-18T04:14:37.236Z,95124.81
2019-05-18T04:17:03.387Z,95127.42
2019-05-18T04:19:44.739Z,95123.62
2019-05-18T04:21:57.857Z,95125.42
2019-05-18T04:24:23.964Z,95125.57
2019-05-18T04:26:50.153Z,95122.59
2019-05-18T04:29:16.334Z,95128.35
2019-05-18T04:31:42.582Z,95131.96
2019-05-18T04:34:08.785Z,95131.62
2019-05-18T04:36:34.879Z,95127.64
2019-05-18T04:39:01.030Z,95137.18
2019-05-18T04:41:29.011Z,95136.32
2019-05-18T04:43:55.183Z,95138.13
2019-05-18T04:46:21.355Z,95134.97
2019-05-18T04:48:47.503Z,95132.66
2019-05-18T04:51:13.670Z,95137.06
2019-05-18T04:53:39.924Z,95133.59
2019-05-18T04:56:06.082Z,95132.59
2019-05-18T04:58:32.242Z,95130.41
2019-05-18T05:00:58.412Z,95141.75
2019-05-18T05:03:24.598Z,95136.98
2019-05-18T05:05:50.755Z,95140.42
2019-05-18T05:08:16.925Z,95139.89
2019-05-18T05:10:43.145Z,95137.71
2019-05-18T05:13:09.292Z,95143.29
2019-05-18T05:15:35.595Z,95140.96
2019-05-18T05:18:02.935Z,95126.11
2019-05-18T05:20:29.175Z,95123.42
2019-05-18T05:22:55.420Z,95121.27
2019-05-18T05:25:21.722Z,95121.23
2019-05-18T05:27:47.810Z,95120.70
2019-05-18T05:30:14.297Z,95115.89
2019-05-18T05:32:40.391Z,95122.45
2019-05-18T05:35:06.879Z,95120.11
2019-05-18T05:37:32.985Z,95122.39
2019-05-18T05:39:59.222Z,95117.56
2019-05-18T05:42:25.345Z,95125.28
2019-05-18T05:44:51.551Z,95126.86
2019-05-18T05:47:17.703Z,95117.09
2019-05-18T05:49:45.124Z,95115.89
2019-05-18T05:52:11.289Z,95116.50
2019-05-18T05:54:37.550Z,95120.44
2019-05-18T05:57:03.805Z,95121.53
2019-05-18T05:59:30.044Z,95126.91
2019-05-18T06:01:56.130Z,95122.91
2019-05-18T06:04:22.364Z,95125.13
2019-05-18T06:06:48.456Z,95129.38
2019-05-18T06:09:14.757Z,95125.17
2019-05-18T06:11:41.008Z,95124.63
2019-05-18T06:14:07.078Z,95123.41
2019-05-18T06:16:33.271Z,95117.70
2019-05-18T06:18:59.389Z,95125.53
2019-05-18T06:21:25.682Z,95130.08
2019-05-18T06:23:51.773Z,95135.44
2019-05-18T06:26:19.187Z,95127.91
2019-05-18T06:28:45.356Z,95132.97
2019-05-18T06:31:17.636Z,95137.33
2019-05-18T06:33:43.914Z,95137.05
2019-05-18T06:36:10.111Z,95133.72
2019-05-18T06:38:36.392Z,95132.78
2019-05-18T06:41:02.567Z,95133.97
2019-05-18T06:43:28.741Z,95140.17
2019-05-18T06:45:55.985Z,95142.86
2019-05-18T06:48:22.809Z,95140.10
2019-05-18T06:50:49.573Z,95134.17
2019-05-18T06:53:15.807Z,95143.13
2019-05-18T06:55:42.451Z,95137.38
2019-05-18T06:58:09.420Z,95145.83
2019-05-18T07:00:35.734Z,95144.04
2019-05-18T07:03:01.914Z,95142.56
2019-05-18T07:05:28.147Z,95133.45
2019-05-18T07:07:54.397Z,95130.97
2019-05-18T07:10:20.544Z,95138.09
2019-05-18T07:12:46.711Z,95129.37
2019-05-18T07:15:15.072Z,95133.55
2019-05-18T07:17:41.341Z,95132.77
2019-05-18T07:20:08.142Z,95136.91
2019-05-18T07:22:34.494Z,95132.47
2019-05-18T07:25:00.710Z,95123.53
2019-05-18T07:27:26.896Z,95124.60
2019-05-18T07:29:53.183Z,95126.37
2019-05-18T07:32:19.581Z,95130.87
2019-05-18T07:34:45.781Z,95132.04
2019-05-18T07:37:11.992Z,95130.31
2019-05-18T07:39:38.183Z,95128.63
2019-05-18T07:42:04.523Z,95128.22
2019-05-18T07:44:30.646Z,95128.73
2019-05-18T07:46:56.806Z,95129.19
2019-05-18T07:49:23.095Z,95126.12
2019-05-18T07:51:49.199Z,95128.88
2019-05-18T07:54:15.409Z,95131.55
2019-05-18T07:56:41.585Z,95130.95
2019-05-18T07:59:07.835Z,95130.52
2019-05-18T08:01:34.114Z,95126.76
2019-05-18T08:04:00.371Z,95132.08
2019-05-18T08:06:26.629Z,95129.42
2019-05-18T08:08:52.885Z,95126.53
2019-05-18T08:11:19.195Z,95128.68
2019-05-18T08:13:45.437Z,95125.28
2019-05-18T08:16:11.715Z,95127.11
2019-05-18T08:18:37.980Z,95126.65
2019-05-18T08:21:04.243Z,95125.51
2019-05-18T08:23:30.515Z,95130.99
2019-05-18T08:25:56.740Z,95127.39
2019-05-18T08:28:22.918Z,95127.59
2019-05-18T08:30:49.036Z,95129.57
2019-05-18T08:33:15.252Z,95127.68
2019-05-18T08:35:41.429Z,95127.08
2019-05-18T08:38:08.224Z,95133.57
2019-05-18T08:40:34.324Z,95135.05
2019-05-18T08:43:00.717Z,95135.77
2019-05-18T08:45:26.925Z,95135.21
2019-05-18T08:47:53.255Z,95131.30
2019-05-18T08:50:19.432Z,95129.82
2019-05-18T08:52:45.651Z,95123.56
2019-05-18T08:55:12.150Z,95130.53
2019-05-18T08:57:38.360Z,95133.84
2019-05-18T09:00:05.435Z,95137.02
2019-05-18T09:02:32.704Z,95133.30
2019-05-18T09:04:58.855Z,95136.41
2019-05-18T09:07:25.157Z,95137.45
2019-05-18T09:09:51.252Z,95132.27
2019-05-18T09:12:17.680Z,95131.05
2019-05-18T09:14:44.040Z,95127.92
2019-05-18T09:17:10.299Z,95135.85
2019-05-18T09:19:36.534Z,95134.27
2019-05-18T09:22:02.704Z,95132.28
2019-05-18T09:24:28.900Z,95134.12
2019-05-18T09:26:55.080Z,95136.91
2019-05-18T09:29:21.448Z,95132.81
2019-05-18T09:31:47.785Z,95132.81
2019-05-18T09:34:13.906Z,95107.80
2019-05-18T09:36:40.141Z,95134.28
2019-05-18T09:39:06.762Z,95134.62
2019-05-18T09:41:33.006Z,95134.62
2019-05-18T09:44:00.262Z,95130.77
2019-05-18T09:46:26.547Z,95127.39
2019-05-18T09:48:52.885Z,95125.80
2019-05-18T09:51:18.981Z,95135.80
2019-05-18T09:53:51.578Z,95131.36
2019-05-18T09:56:13.343Z,95127.73
2019-05-18T09:58:39.546Z,95131.64
2019-05-18T10:01:05.791Z,95125.53
2019-05-18T10:03:32.082Z,95125.44
2019-05-18T10:05:58.177Z,95125.04
2019-05-18T10:08:24.375Z,95122.28
2019-05-18T10:10:50.473Z,95131.84
2019-05-18T10:13:16.805Z,95129.30
2019-05-18T10:15:42.905Z,95134.94
2019-05-18T10:18:09.176Z,95120.59
2019-05-18T10:20:35.317Z,95121.39
2019-05-18T10:23:12.487Z,95118.75
2019-05-18T10:25:29.762Z,95122.23
2019-05-18T10:27:55.962Z,95123.40
2019-05-18T10:30:22.305Z,95125.34
2019-05-18T10:32:48.768Z,95123.77
2019-05-18T10:35:15.065Z,95115.00
2019-05-18T10:37:41.305Z,95116.94
2019-05-18T10:40:08.494Z,95116.37
2019-05-18T10:42:34.757Z,95114.52
2019-05-18T10:45:01.029Z,95114.27
2019-05-18T10:47:27.225Z,95109.27
2019-05-18T10:49:53.347Z,95112.88
2019-05-18T10:52:19.691Z,95106.22
2019-05-18T10:54:45.795Z,95103.14
2019-05-18T10:57:11.990Z,95105.19
2019-05-18T10:59:38.142Z,95099.91
2019-05-18T11:02:04.706Z,95095.67
2019-05-18T11:04:31.068Z,95096.88
2019-05-18T11:06:57.227Z,95099.77
2019-05-18T11:09:23.536Z,95099.06
2019-05-18T11:11:49.713Z,95083.48
2019-05-18T11:14:18.726Z,95097.24
2019-05-18T11:16:45.082Z,95093.73
2019-05-18T11:19:11.295Z,95088.86
2019-05-18T11:21:37.646Z,95084.11
2019-05-18T11:24:04.094Z,95089.00
2019-05-18T11:26:30.342Z,95089.70
2019-05-18T11:28:56.661Z,95099.39
2019-05-18T11:31:22.848Z,95094.71
2019-05-18T11:33:49.066Z,95091.00
2019-05-18T11:36:15.178Z,95091.72
2019-05-18T11:38:41.372Z,95086.67
2019-05-18T11:41:07.466Z,95083.53
2019-05-18T11:43:33.757Z,95084.23
2019-05-18T11:45:59.920Z,95083.69
2019-05-18T11:48:26.153Z,95076.28
2019-05-18T11:50:52.526Z,95076.09
2019-05-18T11:53:18.845Z,95069.42
2019-05-18T11:55:45.175Z,95075.66
2019-05-18T11:58:25.899Z,95075.99
2019-05-18T12:00:52.216Z,95073.39
2019-05-18T12:03:18.372Z,95067.63
2019-05-18T12:05:44.667Z,95065.29
2019-05-18T12:08:10.808Z,95063.30
2019-05-18T12:10:37.086Z,95066.80
2019-05-18T12:13:03.312Z,95062.07
2019-05-18T12:15:29.561Z,95067.80
2019-05-18T12:17:55.716Z,95054.61
2019-05-18T12:20:22.105Z,95060.92
2019-05-18T12:22:48.407Z,95062.02
2019-05-18T12:25:14.817Z,95056.28
2019-05-18T12:27:40.962Z,95064.53
2019-05-18T12:30:10.165Z,95059.53
2019-05-18T12:32:36.395Z,95054.48
2019-05-18T12:35:05.053Z,95054.08
2019-05-18T12:37:31.357Z,95050.38
2019-05-18T12:39:57.699Z,95052.11
2019-05-18T12:42:25.025Z,95045.44
2019-05-18T12:44:51.384Z,95047.80
2019-05-18T12:47:17.870Z,95034.50
2019-05-18T12:49:44.060Z,95034.59
2019-05-18T12:52:10.289Z,95028.80
2019-05-18T12:54:45.989Z,95033.66
2019-05-18T12:57:05.140Z,95030.76
2019-05-18T12:59:31.244Z,95033.31
2019-05-18T13:01:57.444Z,95034.13
2019-05-18T13:04:23.564Z,95024.27
2019-05-18T13:06:49.781Z,95022.68
2019-05-18T13:09:16.056Z,95020.63
2019-05-18T13:11:42.262Z,95016.50
2019-05-18T13:14:08.368Z,95017.72
2019-05-18T13:16:34.594Z,95019.70
2019-05-18T13:19:00.820Z,95024.72
2019-05-18T13:21:27.003Z,95021.68
2019-05-18T13:23:53.129Z,95018.88
2019-05-18T13:26:19.319Z,95016.53
2019-05-18T13:28:45.500Z,95018.17
2019-05-18T13:31:13.727Z,95011.03
2019-05-18T13:33:39.965Z,95012.75
2019-05-18T13:36:06.468Z,95001.02
2019-05-18T13:38:32.900Z,95004.50
2019-05-18T13:40:59.197Z,95001.23
2019-05-18T13:43:25.412Z,94996.86
2019-05-18T13:45:52.613Z,95000.04
2019-05-18T13:48:18.716Z,95001.84
2019-05-18T13:50:45.023Z,94996.38
2019-05-18T13:53:11.265Z,94996.66
2019-05-18T13:55:37.434Z,95000.55
2019-05-18T13:58:03.547Z,94993.58
2019-05-18T14:00:29.676Z,94995.66
2019-05-18T14:02:55.953Z,94999.90
2019-05-18T14:05:22.204Z,94997.03
2019-05-18T14:07:48.374Z,94992.31
2019-05-18T14:10:15.065Z,94996.95
2019-05-18T14:12:41.226Z,95002.10
2019-05-18T14:15:09.623Z,94995.30
2019-05-18T14:17:35.950Z,94997.69
2019-05-18T14:20:03.570Z,94991.81
2019-05-18T14:22:29.833Z,94991.11
2019-05-18T14:24:56.102Z,94989.20
2019-05-18T14:27:22.364Z,94993.85
2019-05-18T14:29:48.592Z,94990.60
2019-05-18T14:32:14.755Z,94991.50
2019-05-18T14:34:40.969Z,94993.37
2019-05-18T14:37:07.063Z,94996.86
2019-05-18T14:39:33.483Z,94984.88
2019-05-18T14:41:59.679Z,94990.45
2019-05-18T14:44:26.048Z,94998.58
2019-05-18T14:46:52.210Z,94994.76
2019-05-18T14:49:18.509Z,94993.98
2019-05-18T14:51:44.772Z,94989.27
2019-05-18T14:54:11.186Z,94989.00
2019-05-18T14:56:37.449Z,94992.55
2019-05-18T14:59:03.795Z,94988.63
2019-05-18T15:01:30.017Z,94994.88
2019-05-18T15:03:56.335Z,95001.33
2019-05-18T15:06:23.641Z,94997.50
2019-05-18T15:08:50.038Z,94999.39
2019-05-18T15:11:16.463Z,95000.16
2019-05-18T15:13:42.782Z,94998.67
2019-05-18T15:16:08.922Z,94993.67
2019-05-18T15:18:35.171Z,95003.67
2019-05-18T15:21:01.488Z,95004.80
2019-05-18T15:23:28.844Z,95001.43
2019-05-18T15:25:55.267Z,95001.45
2019-05-18T15:28:21.484Z,95009.62
2019-05-18T15:30:47.704Z,95007.05
2019-05-18T15:33:13.912Z,94997.02
2019-05-18T15:35:40.306Z,95007.23
2019-05-18T15:38:06.640Z,94999.25
2019-05-18T15:40:32.741Z,95005.44
2019-05-18T15:42:58.980Z,95001.83
2019-05-18T15:45:25.220Z,95006.83
2019-05-18T15:47:51.550Z,95002.77
2019-05-18T15:50:18.581Z,94991.64
2019-05-18T15:52:44.934Z,95000.09
2019-05-18T15:55:11.944Z,94998.04
2019-05-18T15:57:38.353Z,94999.55
2019-05-18T16:00:06.919Z,94994.65
2019-05-18T16:02:33.159Z,94997.80
2019-05-18T16:04:59.343Z,94997.44
2019-05-18T16:07:25.649Z,95000.25
2019-05-18T16:09:51.831Z,95007.77
2019-05-18T16:12:17.988Z,95004.13
2019-05-18T16:14:45.133Z,95004.35
2019-05-18T16:17:11.383Z,95008.35
2019-05-18T16:19:37.496Z,95008.80
2019-05-18T16:22:03.980Z,95007.86
2019-05-18T16:24:30.243Z,95002.82
2019-05-18T16:26:56.464Z,94999.02
2019-05-18T16:29:22.711Z,95004.73
2019-05-18T16:31:48.935Z,95000.42
2019-05-18T16:34:15.123Z,95005.62
2019-05-18T16:36:41.342Z,95006.23
2019-05-18T16:39:07.735Z,95009.56
2019-05-18T16:41:34.033Z,95009.61
2019-05-18T16:44:00.140Z,95008.02
2019-05-18T16:46:26.318Z,95005.34
2019-05-18T16:48:52.609Z,95005.59
2019-05-18T16:51:18.772Z,95003.76
2019-05-18T16:53:48.137Z,95001.34
2019-05-18T16:56:14.213Z,95000.52
2019-05-18T16:58:40.525Z,95003.28
2019-05-18T17:01:06.873Z,94995.76
2019-05-18T17:03:33.080Z,94992.53
2019-05-18T17:06:00.739Z,95000.94
2019-05-18T17:08:26.922Z,95002.59
2019-05-18T17:10:53.090Z,95004.47
2019-05-18T17:13:19.226Z,94999.36
2019-05-18T17:15:45.474Z,95004.24
2019-05-18T17:18:11.609Z,95002.63
2019-05-18T17:20:37.775Z,95001.25
2019-05-18T17:23:04.088Z,95003.17
2019-05-18T17:25:30.440Z,95008.56
2019-05-18T17:27:56.690Z,95004.77
2019-05-18T17:30:24.243Z,95003.70
2019-05-18T17:32:50.471Z,95002.61
2019-05-18T17:35:16.954Z,95004.70
2019-05-18T17:37:43.168Z,95006.32
2019-05-18T17:40:09.689Z,95001.73
2019-05-18T17:42:36.004Z,95006.58
2019-05-18T17:45:04.937Z,95002.25
2019-05-18T17:47:31.211Z,95008.91
2019-05-18T17:49:57.436Z,95005.89
2019-05-18T17:52:23.530Z,95016.87
2019-05-18T17:54:49.740Z,95015.13
2019-05-18T17:57:15.831Z,95018.02
2019-05-18T17:59:42.164Z,95014.94
2019-05-18T18:02:08.374Z,95021.33
2019-05-18T18:04:34.571Z,95018.02
2019-05-18T18:07:00.748Z,95019.23
2019-05-18T18:09:27.001Z,95020.48
2019-05-18T18:11:53.338Z,95015.86
2019-05-18T18:14:19.751Z,95014.96
2019-05-18T18:16:45.942Z,95019.17
2019-05-18T18:19:12.094Z,95017.67
2019-05-18T18:21:38.319Z,95019.48
2019-05-18T18:24:04.653Z,95014.80
2019-05-18T18:26:30.874Z,95027.57
2019-05-18T18:28:56.953Z,95024.45
2019-05-18T18:31:23.161Z,95034.70
2019-05-18T18:33:49.412Z,95032.41
2019-05-18T18:36:15.697Z,95035.53
2019-05-18T18:38:41.959Z,95032.67
2019-05-18T18:41:08.307Z,95041.09
2019-05-18T18:43:34.522Z,95037.17
2019-05-18T18:46:00.875Z,95043.97
2019-05-18T18:48:27.013Z,95044.45
2019-05-18T18:50:53.246Z,95041.61
2019-05-18T18:53:19.454Z,95047.63
2019-05-18T18:55:45.664Z,95047.70
2019-05-18T18:58:11.812Z,95048.29
2019-05-18T19:00:38.319Z,95046.67
2019-05-18T19:03:04.585Z,95058.53
2019-05-18T19:05:30.856Z,95051.30
2019-05-18T19:07:57.402Z,95056.08
2019-05-18T19:10:23.886Z,95037.33
2019-05-18T19:12:50.486Z,95037.33
2019-05-18T19:15:17.001Z,95041.92
2019-05-18T19:17:43.111Z,95069.99
2019-05-18T19:20:10.050Z,95075.03
2019-05-18T19:22:36.331Z,95078.75
2019-05-18T19:25:03.597Z,95075.36
2019-05-18T19:27:30.117Z,95080.77
2019-05-18T19:29:56.462Z,95083.92
2019-05-18T19:32:22.612Z,95082.27
2019-05-18T19:34:49.880Z,95080.07
2019-05-18T19:37:16.077Z,95080.77
2019-05-18T19:39:42.392Z,95076.26
2019-05-18T19:42:08.569Z,95075.72
2019-05-18T19:44:34.841Z,95077.44
2019-05-18T19:47:00.997Z,95083.83
2019-05-18T19:49:27.215Z,95084.78
2019-05-18T19:51:53.539Z,95078.46
2019-05-18T19:54:19.782Z,95086.02
2019-05-18T19:56:46.189Z,95088.45
2019-05-18T19:59:12.891Z,95078.23
2019-05-18T20:01:39.097Z,95084.67
2019-05-18T20:04:05.331Z,95084.00
2019-05-18T20:06:31.479Z,95080.16
2019-05-18T20:08:57.681Z,95082.66
2019-05-18T20:11:23.868Z,95084.58
2019-05-18T20:13:50.107Z,95079.36
2019-05-18T20:16:16.324Z,95082.69
2019-05-18T20:18:42.538Z,95082.00
2019-05-18T20:21:08.886Z,95087.27
2019-05-18T20:23:35.122Z,95083.42
2019-05-18T20:26:01.230Z,95082.73
2019-05-18T20:28:27.428Z,95089.83
2019-05-18T20:30:53.535Z,95088.94
2019-05-18T20:33:19.769Z,95090.70
2019-05-18T20:35:46.879Z,95089.52
2019-05-18T20:38:13.168Z,95092.50
2019-05-18T20:40:40.252Z,95089.98
2019-05-18T20:43:06.796Z,95089.16
2019-05-18T20:45:34.901Z,95093.08
2019-05-18T20:48:01.696Z,95087.97
2019-05-18T20:50:27.993Z,95093.94
2019-05-18T20:52:54.213Z,95090.23
2019-05-18T20:55:20.375Z,95089.05
2019-05-18T20:57:46.731Z,95094.88
2019-05-18T21:00:13.735Z,95089.48
2019-05-18T21:02:40.122Z,95089.98
2019-05-18T21:05:07.408Z,95095.09
2019-05-18T21:07:33.607Z,95097.67
2019-05-18T21:09:59.766Z,95096.05
2019-05-18T21:12:26.121Z,95093.90
2019-05-18T21:14:52.366Z,95097.06
2019-05-18T21:17:19.468Z,95098.11
2019-05-18T21:19:45.658Z,95096.27
2019-05-18T21:22:11.814Z,95088.89
2019-05-18T21:24:37.962Z,95092.78
2019-05-18T21:27:04.313Z,95089.75
2019-05-18T21:29:31.642Z,95083.53
2019-05-18T21:31:57.726Z,95084.78
2019-05-18T21:34:23.917Z,95082.33
2019-05-18T21:36:50.015Z,95079.89
2019-05-18T21:39:16.421Z,95081.72
2019-05-18T21:41:42.575Z,95083.88
2019-05-18T21:44:08.820Z,95079.67
2019-05-18T21:46:35.070Z,95074.13
2019-05-18T21:49:01.408Z,95070.14
2019-05-18T21:51:27.630Z,95072.80
2019-05-18T21:53:53.722Z,95076.80
2019-05-18T21:56:20.057Z,95072.48
2019-05-18T21:58:46.205Z,95070.94
2019-05-18T22:01:13.560Z,95073.17
2019-05-18T22:03:43.899Z,95069.47
2019-05-18T22:06:08.313Z,95069.79
2019-05-18T22:08:34.638Z,95067.63
2019-05-18T22:11:00.894Z,95064.14
2019-05-18T22:13:27.291Z,95055.05
2019-05-18T22:15:53.559Z,95056.62
2019-05-18T22:18:24.488Z,95054.25
2019-05-18T22:20:47.907Z,95048.64
2019-05-18T22:23:14.163Z,95049.06
2019-05-18T22:25:40.462Z,95048.02
2019-05-18T22:28:06.643Z,95052.92
2019-05-18T22:30:33.124Z,95059.44
2019-05-18T22:32:59.282Z,95056.13
2019-05-18T22:35:25.642Z,95052.42
2019-05-18T22:37:51.893Z,95049.90
2019-05-18T22:40:18.335Z,95046.48
2019-05-18T22:42:44.655Z,95048.14
2019-05-18T22:45:11.058Z,95045.77
2019-05-18T22:47:38.601Z,95042.95
2019-05-18T22:50:05.522Z,95030.76
2019-05-18T22:52:31.689Z,95036.19
2019-05-18T22:54:57.849Z,95030.55
2019-05-18T22:57:24.022Z,95027.88
2019-05-18T22:59:50.190Z,95025.54
2019-05-18T23:02:16.395Z,95030.55
2019-05-18T23:04:42.561Z,95020.94
2019-05-18T23:07:08.763Z,95027.09
2019-05-18T23:09:34.970Z,95013.84
2019-05-18T23:12:01.253Z,95015.39
2019-05-18T23:14:27.412Z,95023.59
2019-05-18T23:16:53.578Z,95020.11
2019-05-18T23:19:19.800Z,95017.23
2019-05-18T23:21:45.947Z,95014.67
2019-05-18T23:24:12.145Z,95016.58
2019-05-18T23:26:38.388Z,95011.03
2019-05-18T23:29:04.748Z,95010.75
2019-05-18T23:31:31.068Z,95005.13
2019-05-18T23:33:57.225Z,95004.53
2019-05-18T23:36:23.555Z,94991.81
2019-05-18T23:38:49.786Z,94998.69
2019-05-18T23:41:16.082Z,94987.22
2019-05-18T23:43:42.368Z,94988.77
2019-05-18T23:46:08.569Z,94980.70
2019-05-18T23:48:34.662Z,94980.61
2019-05-18T23:51:00.997Z,94973.88
2019-05-18T23:53:27.206Z,94968.99
2019-05-18T23:55:53.410Z,94963.47
2019-05-18T23:58:19.552Z,94967.31
